Time;durP1;ratioP1;P1;durP2;ratioP2;P2;SDS_P1;SDS_P2;PMS_P1;PMS_P2;Temp;Humidity;BMP_temperature;BMP_pressure;BME280_temperature;BME280_humidity;BME280_pressure;Samples;Min_cycle;Max_cycle;Signal;HPM_P1;HPM_P2
2022/08/25 00:02:34;;;;;;;9.83;9.03;;;20.70;79.20;;;;;;2620707;54;20383;-87
2022/08/25 00:08:22;;;;;;;8.90;8.10;;;20.50;86.30;;;;;;2621082;54;21028;-82
2022/08/25 00:20:27;;;;;;;10.20;9.30;;;20.20;99.90;;;;;;2621128;54;20388;-85
2022/08/25 00:26:15;;;;;;;11.10;9.10;;;20.10;99.90;;;;;;2622185;39;21010;-87
2022/08/25 00:29:00;;;;;;;9.00;8.27;;;20.00;99.90;;;;;;2621511;54;20453;-86
2022/08/25 00:31:26;;;;;;;8.73;7.93;;;20.10;99.90;;;;;;2620683;47;20413;-85
2022/08/25 00:37:15;;;;;;;8.67;7.70;;;19.90;99.90;;;;;;2621316;54;20436;-86
2022/08/25 00:43:04;;;;;;;9.50;8.60;;;19.80;99.90;;;;;;2617362;54;20385;-78
2022/08/25 00:55:36;;;;;;;12.50;9.13;;;19.70;99.90;;;;;;2619376;54;20366;-85
2022/08/25 01:01:41;;;;;;;9.00;8.17;;;19.50;99.90;;;;;;2618894;54;20381;-86
2022/08/25 01:07:28;;;;;;;9.20;8.40;;;19.40;99.90;;;;;;2617827;54;20438;-83
2022/08/25 01:20:01;;;;;;;9.90;9.00;;;19.30;99.90;;;;;;2617886;54;20413;-83
2022/08/25 01:31:57;;;;;;;10.30;9.50;;;19.20;99.90;;;;;;2617438;39;20788;-84
2022/08/25 01:37:47;;;;;;;8.50;7.90;;;19.20;99.90;;;;;;2617345;54;20393;-84
2022/08/25 01:43:38;;;;;;;10.17;8.80;;;19.00;99.90;;;;;;2617407;54;20398;-84
2022/08/25 01:49:25;;;;;;;14.63;9.47;;;18.90;99.90;;;;;;2617547;54;20387;-84
2022/08/25 01:55:13;;;;;;;9.67;8.73;;;18.80;99.90;;;;;;2619817;54;20227;-86
2022/08/25 02:01:04;;;;;;;10.10;9.20;;;18.80;99.90;;;;;;2619517;54;20123;-87
2022/08/25 02:06:52;;;;;;;10.00;9.10;;;18.80;99.90;;;;;;2620398;54;20404;-84
2022/08/25 02:12:40;;;;;;;10.13;9.23;;;18.70;99.90;;;;;;2620859;54;20119;-86
2022/08/25 02:18:29;;;;;;;10.33;9.20;;;18.60;99.90;;;;;;2621249;54;20235;-82
2022/08/25 02:24:17;;;;;;;10.87;9.80;;;18.60;99.90;;;;;;2622512;54;20387;-86
2022/08/25 02:33:34;;;;;;;10.23;9.30;;;18.30;99.90;;;;;;2621141;54;20391;-84
2022/08/25 02:39:22;;;;;;;11.47;10.33;;;18.30;99.90;;;;;;2620348;54;20400;-84
2022/08/25 02:45:10;;;;;;;10.10;9.30;;;18.20;99.90;;;;;;2621152;54;20399;-86
2022/08/25 02:51:00;;;;;;;11.53;10.43;;;18.20;99.90;;;;;;2620581;54;20115;-85
2022/08/25 02:56:48;;;;;;;10.30;9.40;;;18.20;99.90;;;;;;2619440;54;20411;-87
2022/08/25 03:02:36;;;;;;;11.40;10.23;;;18.10;99.90;;;;;;2618657;54;20374;-86
2022/08/25 03:08:25;;;;;;;10.10;9.30;;;18.10;99.90;;;;;;2619402;54;20154;-87
2022/08/25 03:14:12;;;;;;;10.40;9.50;;;18.10;99.90;;;;;;2618992;54;20403;-86
2022/08/25 03:20:00;;;;;;;10.57;9.67;;;18.00;99.90;;;;;;2619493;39;20527;-86
2022/08/25 03:35:17;;;;;;;13.57;10.47;;;17.90;99.90;;;;;;2618889;54;20513;-86
2022/08/25 03:47:44;;;;;;;14.00;11.87;;;17.70;99.90;;;;;;2619413;54;20402;-85
2022/08/25 03:53:35;;;;;;;13.00;10.60;;;17.50;99.90;;;;;;2620034;54;20408;-86
2022/08/25 03:59:24;;;;;;;12.13;11.10;;;17.40;99.90;;;;;;2619524;54;20398;-84
2022/08/25 04:05:12;;;;;;;10.60;9.70;;;17.30;99.90;;;;;;2618770;54;20417;-86
2022/08/25 04:17:31;;;;;;;10.90;10.00;;;17.30;99.90;;;;;;2618591;54;20378;-84
2022/08/25 04:23:19;;;;;;;12.27;11.17;;;17.30;99.90;;;;;;2618124;54;20960;-84
2022/08/25 04:29:08;;;;;;;10.77;9.70;;;17.20;99.90;;;;;;2618189;54;20390;-84
2022/08/25 04:34:56;;;;;;;12.50;11.03;;;17.20;99.90;;;;;;2618629;54;20389;-84
2022/08/25 04:40:44;;;;;;;11.63;10.50;;;17.20;99.90;;;;;;2617665;54;20129;-84
2022/08/25 04:46:33;;;;;;;11.97;10.73;;;17.30;99.90;;;;;;2617846;54;20122;-88
2022/08/25 04:52:21;;;;;;;12.87;11.70;;;17.40;99.90;;;;;;2617880;54;20415;-81
2022/08/25 04:58:09;;;;;;;11.10;10.20;;;17.40;99.90;;;;;;2618567;39;20519;-83
2022/08/25 05:03:59;;;;;;;14.07;11.63;;;17.50;99.90;;;;;;2618018;54;20146;-85
2022/08/25 05:09:48;;;;;;;12.03;10.90;;;17.70;99.90;;;;;;2618168;54;20434;-86
2022/08/25 05:21:42;;;;;;;12.70;11.00;;;18.10;99.90;;;;;;2618482;54;21017;-84
2022/08/25 05:27:33;;;;;;;13.37;11.97;;;18.30;99.90;;;;;;2618441;54;21422;-85
2022/08/25 05:36:58;;;;;;;9.97;9.07;;;20.80;99.90;;;;;;2617829;54;20374;-87
2022/08/25 05:42:47;;;;;;;10.00;9.10;;;21.70;99.60;;;;;;2620227;54;20408;-87
2022/08/25 05:48:34;;;;;;;8.80;8.10;;;22.50;72.70;;;;;;2619412;54;20473;-87
2022/08/25 05:54:22;;;;;;;13.30;9.33;;;22.80;63.60;;;;;;2615708;54;20495;-82
2022/08/25 06:00:10;;;;;;;11.20;8.50;;;23.60;48.20;;;;;;2616092;54;20118;-76
2022/08/25 06:12:11;;;;;;;11.30;8.60;;;24.30;39.00;;;;;;2617333;54;20511;-76
2022/08/25 06:18:01;;;;;;;11.03;9.90;;;24.40;33.20;;;;;;2617127;54;20945;-76
2022/08/25 06:23:49;;;;;;;10.57;8.90;;;24.70;29.50;;;;;;2617221;54;20482;-76
2022/08/25 06:29:36;;;;;;;12.27;11.10;;;25.10;26.60;;;;;;2617295;54;20508;-76
2022/08/25 06:35:24;;;;;;;10.07;9.07;;;25.40;26.80;;;;;;2617438;54;20227;-76
2022/08/25 06:38:28;;;;;;;12.17;8.87;;;25.50;25.00;;;;;;2617151;39;20797;-76
2022/08/25 06:40:56;;;;;;;12.23;9.70;;;25.70;23.30;;;;;;2616492;47;20187;-76
2022/08/25 06:46:43;;;;;;;15.20;8.40;;;26.10;20.70;;;;;;2616834;54;20425;-76
2022/08/25 06:52:32;;;;;;;10.37;9.30;;;26.40;19.30;;;;;;2618588;54;20132;-83
2022/08/25 06:58:19;;;;;;;13.13;8.97;;;26.70;18.80;;;;;;2618871;54;20967;-83
2022/08/25 07:04:07;;;;;;;10.23;9.43;;;27.00;16.50;;;;;;2620959;54;20145;-84
2022/08/25 07:09:55;;;;;;;9.87;8.93;;;27.20;16.20;;;;;;2617680;39;20824;-82
2022/08/25 07:15:44;;;;;;;10.13;9.23;;;27.20;15.50;;;;;;2617036;54;20386;-82
2022/08/25 07:21:35;;;;;;;10.03;9.13;;;27.50;14.80;;;;;;2616642;54;20227;-82
2022/08/25 07:27:24;;;;;;;12.00;9.20;;;27.80;14.40;;;;;;2616840;54;20415;-81
2022/08/25 07:30:34;;;;;;;9.00;8.10;;;28.10;13.60;;;;;;2616358;54;20410;-79
2022/08/25 07:32:59;;;;;;;8.40;7.67;;;28.50;12.80;;;;;;2617018;54;20415;-81
2022/08/25 07:38:47;;;;;;;12.70;9.33;;;28.40;12.20;;;;;;2617217;54;20124;-82
2022/08/25 07:44:35;;;;;;;10.43;9.40;;;29.10;10.00;;;;;;2617600;54;20157;-82
2022/08/25 07:50:23;;;;;;;9.50;8.50;;;28.80;9.20;;;;;;2616915;54;20121;-81
2022/08/25 07:56:13;;;;;;;9.50;8.70;;;29.40;9.60;;;;;;2616640;54;20435;-82
2022/08/25 08:02:01;;;;;;;9.03;8.33;;;29.80;9.10;;;;;;2617037;39;20749;-81
2022/08/25 08:07:50;;;;;;;10.00;9.07;;;30.40;8.40;;;;;;2617568;54;20504;-82
2022/08/25 08:13:38;;;;;;;8.67;7.90;;;29.70;6.70;;;;;;2617649;54;20358;-82
2022/08/25 08:19:26;;;;;;;9.93;9.00;;;29.80;7.00;;;;;;2617662;54;20151;-82
2022/08/25 08:25:14;;;;;;;10.17;9.20;;;30.70;5.70;;;;;;2617810;54;20386;-83
2022/08/25 08:35:07;;;;;;;9.77;8.80;;;30.80;3.80;;;;;;2619183;54;20954;-83
2022/08/25 08:54:19;;;;;;;10.80;9.77;;;31.10;3.40;;;;;;2618155;54;20371;-83
2022/08/25 09:00:07;;;;;;;9.70;8.90;;;30.20;4.80;;;;;;2617826;54;20387;-85
2022/08/25 09:05:59;;;;;;;9.63;8.97;;;31.00;3.80;;;;;;2615505;54;21041;-82
2022/08/25 09:18:36;;;;;;;8.83;8.03;;;30.90;3.30;;;;;;2616191;54;20413;-77
2022/08/25 09:35:06;;;;;;;10.17;9.23;;;32.50;1.70;;;;;;2617422;54;20422;-76
2022/08/25 09:40:56;;;;;;;9.37;8.70;;;31.90;1.10;;;;;;2617392;54;20461;-77
2022/08/25 09:53:32;;;;;;;9.33;8.50;;;32.30;1.00;;;;;;2616042;54;20393;-77
2022/08/25 09:59:24;;;;;;;8.87;8.13;;;32.90;1.00;;;;;;2616052;54;20405;-76
2022/08/25 10:05:24;;;;;;;9.07;8.37;;;33.20;1.00;;;;;;2616031;54;20389;-77
2022/08/25 10:17:33;;;;;;;10.13;9.30;;;33.30;1.00;;;;;;2615832;54;20372;-76
2022/08/25 10:23:26;;;;;;;9.43;8.60;;;33.40;1.00;;;;;;2615914;54;20122;-76
2022/08/25 10:29:33;;;;;;;8.93;8.33;;;33.20;1.00;;;;;;2617393;54;20379;-76
2022/08/25 10:48:37;;;;;;;10.07;9.37;;;33.20;1.00;;;;;;2617810;39;20772;-82
2022/08/25 11:24:20;;;;;;;10.90;8.00;;;34.70;1.00;;;;;;2615126;54;20444;-77
2022/08/25 11:30:11;;;;;;;8.20;7.80;;;33.80;1.00;;;;;;2615126;54;20990;-77
2022/08/25 11:36:34;;;;;;;7.57;7.17;;;34.10;1.00;;;;;;2615958;54;20395;-84
2022/08/25 11:55:53;;;;;;;7.30;6.90;;;34.80;1.00;;;;;;2619998;54;20412;-84
2022/08/25 12:01:43;;;;;;;7.57;7.17;;;35.00;1.00;;;;;;2621727;54;20395;-84
2022/08/25 12:07:50;;;;;;;9.00;8.17;;;35.40;1.00;;;;;;2620923;54;20427;-84
2022/08/25 12:13:41;;;;;;;8.80;8.30;;;35.30;1.00;;;;;;2621488;54;20448;-84
2022/08/25 12:36:07;;;;;;;7.53;7.13;;;34.40;1.00;;;;;;2618548;54;20376;-86
2022/08/25 12:48:26;;;;;;;8.43;7.83;;;34.70;1.00;;;;;;2615356;54;21006;-77
2022/08/25 13:05:16;;;;;;;8.23;7.70;;;35.10;1.00;;;;;;2615297;54;20419;-77
2022/08/25 13:23:41;;;;;;;8.90;8.30;;;35.10;1.00;;;;;;2614996;54;20955;-76
2022/08/25 13:29:34;;;;;;;8.17;7.47;;;35.40;1.00;;;;;;2615145;54;20973;-78
2022/08/25 13:35:26;;;;;;;7.50;7.10;;;35.60;1.00;;;;;;2616893;39;20801;-80
2022/08/25 13:38:38;;;;;;;9.07;8.47;;;35.70;1.00;;;;;;2616575;54;20936;-77
2022/08/25 13:44:30;;;;;;;8.17;7.60;;;36.90;1.00;;;;;;2616439;54;20589;-77
2022/08/25 13:50:34;;;;;;;7.63;7.23;;;35.60;1.00;;;;;;2616592;54;20427;-78
2022/08/25 14:02:43;;;;;;;9.03;8.43;;;35.00;1.00;;;;;;2617286;54;20403;-76
2022/08/25 14:08:34;;;;;;;8.60;7.90;;;34.40;1.00;;;;;;2617877;39;20789;-76
2022/08/25 14:14:22;;;;;;;8.73;8.23;;;35.50;1.00;;;;;;2618050;31;20791;-77
2022/08/25 14:20:22;;;;;;;8.30;7.80;;;35.70;1.00;;;;;;2617071;54;20118;-76
2022/08/25 14:26:10;;;;;;;9.33;8.40;;;36.60;1.00;;;;;;2617078;54;20387;-77
2022/08/25 14:31:59;;;;;;;7.80;7.40;;;36.80;1.00;;;;;;2617217;54;20382;-77
2022/08/25 14:41:10;;;;;;;7.90;7.50;;;36.80;1.00;;;;;;2616897;54;20433;-76
2022/08/25 14:47:00;;;;;;;9.77;8.90;;;37.60;1.00;;;;;;2616920;54;20406;-77
2022/08/25 14:52:48;;;;;;;9.40;8.80;;;36.20;1.00;;;;;;2617456;54;20363;-76
2022/08/25 14:58:36;;;;;;;9.53;8.93;;;38.20;1.00;;;;;;2616962;54;20130;-78
2022/08/25 15:04:27;;;;;;;9.10;8.50;;;37.10;1.00;;;;;;2618068;39;20759;-85
2022/08/25 15:10:14;;;;;;;10.23;9.20;;;38.00;1.00;;;;;;2623508;39;21052;-86
2022/08/25 15:16:03;;;;;;;8.27;7.80;;;38.50;1.00;;;;;;2623087;54;20684;-85
2022/08/25 15:21:51;;;;;;;9.60;8.90;;;38.30;1.00;;;;;;2623350;54;20432;-85
2022/08/25 15:27:39;;;;;;;9.40;8.60;;;38.80;1.00;;;;;;2623124;54;20371;-85
2022/08/25 15:33:29;;;;;;;8.50;7.90;;;38.40;1.00;;;;;;2620128;54;20924;-79
2022/08/25 15:36:39;;;;;;;8.73;8.13;;;38.20;1.00;;;;;;2616498;54;20399;-78
2022/08/25 15:39:05;;;;;;;8.37;7.87;;;38.30;1.00;;;;;;2616844;54;20415;-76
2022/08/25 15:44:54;;;;;;;8.47;8.07;;;38.30;1.00;;;;;;2617800;39;20706;-78
2022/08/25 15:50:42;;;;;;;9.23;8.80;;;36.30;1.00;;;;;;2617184;54;20371;-79
2022/08/25 15:56:30;;;;;;;9.20;8.60;;;35.00;1.00;;;;;;2616758;54;20151;-79
2022/08/25 16:02:18;;;;;;;9.40;8.67;;;35.90;1.00;;;;;;2616762;54;20132;-78
2022/08/25 16:08:06;;;;;;;10.00;9.30;;;33.50;1.00;;;;;;2617158;54;20387;-78
2022/08/25 16:13:55;;;;;;;9.33;8.63;;;32.70;1.00;;;;;;2616850;54;20624;-79
2022/08/25 16:19:42;;;;;;;9.37;8.40;;;32.30;1.00;;;;;;2616929;46;20418;-76
2022/08/25 16:25:31;;;;;;;8.70;8.10;;;35.60;1.00;;;;;;2617358;54;20126;-78
2022/08/25 16:31:19;;;;;;;9.20;7.90;;;36.10;1.00;;;;;;2617070;54;20375;-78
2022/08/25 16:41:13;;;;;;;8.40;7.80;;;35.80;1.00;;;;;;2616833;54;20459;-78
2022/08/25 16:47:01;;;;;;;9.00;8.20;;;35.90;1.00;;;;;;2616711;54;20378;-78
2022/08/25 16:59:00;;;;;;;8.87;8.17;;;31.70;1.00;;;;;;2617633;54;20403;-79
2022/08/25 17:04:48;;;;;;;8.23;7.43;;;33.10;1.00;;;;;;2619178;54;20391;-84
2022/08/25 17:10:38;;;;;;;9.93;9.10;;;31.70;1.00;;;;;;2618927;54;20128;-84
2022/08/25 17:16:29;;;;;;;9.00;8.33;;;31.30;1.00;;;;;;2618035;54;20930;-78
2022/08/25 17:22:17;;;;;;;10.63;9.63;;;31.00;1.00;;;;;;2617859;39;20802;-77
2022/08/25 17:28:06;;;;;;;9.73;8.77;;;30.70;1.00;;;;;;2617336;54;20116;-80
2022/08/25 17:33:54;;;;;;;10.40;9.60;;;30.50;1.00;;;;;;2616693;54;20421;-78
2022/08/25 17:39:42;;;;;;;9.87;9.13;;;30.20;1.00;;;;;;2617818;54;20768;-78
2022/08/25 17:45:30;;;;;;;9.70;9.00;;;30.00;1.00;;;;;;2618091;54;20122;-78
2022/08/25 17:51:19;;;;;;;11.93;10.77;;;29.90;1.00;;;;;;2628412;54;20409;-89
2022/08/25 17:57:07;;;;;;;11.43;10.57;;;29.40;1.00;;;;;;2620691;54;20386;-80
2022/08/25 18:02:57;;;;;;;11.27;10.37;;;29.00;1.00;;;;;;2618556;39;20806;-80
2022/08/25 18:08:45;;;;;;;11.40;10.30;;;28.80;1.00;;;;;;2617914;54;20367;-78
2022/08/25 18:14:33;;;;;;;15.10;13.73;;;28.40;3.20;;;;;;2617816;54;20152;-79
2022/08/25 18:20:22;;;;;;;17.80;16.50;;;28.10;3.70;;;;;;2617630;54;21019;-79
2022/08/25 18:26:11;;;;;;;16.33;14.80;;;27.80;5.40;;;;;;2617814;46;20425;-78
2022/08/25 18:31:59;;;;;;;12.10;11.10;;;27.50;7.10;;;;;;2617752;54;20371;-78
2022/08/25 18:43:53;;;;;;;11.90;10.80;;;27.10;7.90;;;;;;2618513;54;20451;-83
2022/08/25 18:49:45;;;;;;;12.53;11.07;;;26.80;11.20;;;;;;2617788;54;21075;-79
2022/08/25 18:55:34;;;;;;;12.27;11.00;;;26.50;12.60;;;;;;2617508;54;20989;-81
2022/08/25 19:01:23;;;;;;;11.57;10.47;;;26.30;13.20;;;;;;2617424;54;20371;-81
2022/08/25 19:07:12;;;;;;;18.40;11.57;;;26.00;14.40;;;;;;2617367;54;20425;-81
2022/08/25 19:13:02;;;;;;;12.80;11.47;;;25.90;16.40;;;;;;2617557;46;20382;-82
2022/08/25 19:18:50;;;;;;;12.00;10.90;;;25.70;17.00;;;;;;2617272;54;20398;-78
2022/08/25 19:24:38;;;;;;;14.53;12.50;;;25.50;21.40;;;;;;2625425;54;20166;-88
2022/08/25 19:30:29;;;;;;;12.40;11.20;;;25.40;24.40;;;;;;2625412;54;20203;-87
2022/08/25 19:36:19;;;;;;;13.00;11.33;;;25.20;29.50;;;;;;2626257;39;20848;-88
2022/08/25 19:42:08;;;;;;;15.77;12.63;;;25.00;29.70;;;;;;2623491;54;20399;-88
2022/08/25 19:47:56;;;;;;;13.97;12.50;;;24.90;32.70;;;;;;2624102;39;20861;-84
2022/08/25 19:51:12;;;;;;;15.30;12.50;;;24.80;31.70;;;;;;2623610;54;20386;-81
2022/08/25 19:57:03;;;;;;;18.23;12.30;;;24.50;37.30;;;;;;2624337;39;20832;-88
2022/08/25 20:02:52;;;;;;;20.30;11.40;;;24.40;45.20;;;;;;2623295;54;20393;-83
2022/08/25 20:08:40;;;;;;;12.23;11.00;;;24.20;48.20;;;;;;2622430;54;20410;-86
2022/08/25 20:14:28;;;;;;;14.07;12.30;;;24.10;49.40;;;;;;2622998;54;20151;-84
2022/08/25 20:20:20;;;;;;;13.10;12.03;;;23.90;56.10;;;;;;2619941;39;20813;-87
2022/08/25 20:26:08;;;;;;;13.03;11.90;;;23.80;55.50;;;;;;2617153;54;20580;-77
2022/08/25 20:31:56;;;;;;;15.80;12.93;;;23.70;56.60;;;;;;2616725;54;20963;-78
2022/08/25 20:37:45;;;;;;;12.80;11.80;;;23.60;58.10;;;;;;2616953;54;20386;-77
2022/08/25 20:43:34;;;;;;;13.83;12.50;;;23.60;58.10;;;;;;2617283;54;20431;-77
2022/08/25 20:52:45;;;;;;;12.70;11.50;;;23.50;59.40;;;;;;2621183;54;20488;-88
2022/08/25 20:58:35;;;;;;;14.00;12.47;;;23.40;60.00;;;;;;2621392;54;20420;-84
2022/08/25 21:04:25;;;;;;;16.87;11.23;;;23.30;62.30;;;;;;2620767;54;20385;-88
2022/08/25 21:10:14;;;;;;;13.07;11.20;;;23.40;61.50;;;;;;2620671;54;20389;-87
2022/08/25 21:16:03;;;;;;;14.07;11.70;;;23.10;71.50;;;;;;2621520;54;20980;-84
2022/08/25 21:21:51;;;;;;;12.67;11.57;;;23.00;67.80;;;;;;2621040;54;20416;-83
2022/08/25 21:27:40;;;;;;;11.77;10.57;;;22.70;72.90;;;;;;2621727;54;20135;-87
2022/08/25 21:33:28;;;;;;;12.80;11.43;;;22.60;75.30;;;;;;2620693;54;20363;-86
2022/08/25 21:39:16;;;;;;;12.40;11.30;;;22.50;75.40;;;;;;2620625;54;20119;-88
2022/08/25 21:45:04;;;;;;;11.70;10.70;;;22.30;83.60;;;;;;2620454;54;20376;-87
2022/08/25 21:48:10;;;;;;;11.63;10.63;;;22.20;90.60;;;;;;2619720;54;20423;-88
2022/08/25 21:50:37;;;;;;;11.53;10.30;;;22.20;90.40;;;;;;2619379;47;20431;-86
2022/08/25 21:56:25;;;;;;;11.93;10.87;;;22.10;93.40;;;;;;2621240;54;20410;-85
2022/08/25 22:02:14;;;;;;;11.80;10.80;;;22.20;95.80;;;;;;2620226;54;20142;-84
2022/08/25 22:08:02;;;;;;;12.13;11.10;;;22.00;95.40;;;;;;2617152;54;21077;-83
2022/08/25 22:13:51;;;;;;;12.90;11.40;;;22.00;95.40;;;;;;2617201;54;20162;-83
2022/08/25 22:19:39;;;;;;;12.57;11.27;;;21.70;99.90;;;;;;2616969;54;20395;-86
2022/08/25 22:25:27;;;;;;;12.23;11.07;;;21.70;99.20;;;;;;2618009;54;20142;-83
2022/08/25 22:31:15;;;;;;;12.10;11.10;;;21.70;99.90;;;;;;2617679;54;20158;-84
2022/08/25 22:37:03;;;;;;;11.70;10.60;;;21.50;99.90;;;;;;2617996;54;20138;-84
2022/08/25 22:42:52;;;;;;;12.40;11.40;;;21.40;99.90;;;;;;2617591;54;20443;-83
2022/08/25 22:52:39;;;;;;;12.50;11.40;;;21.40;99.90;;;;;;2617875;54;20363;-85
2022/08/25 22:58:28;;;;;;;13.37;12.07;;;21.40;99.90;;;;;;2617634;54;20379;-83
2022/08/25 23:04:16;;;;;;;11.73;10.67;;;21.50;99.90;;;;;;2617215;54;20383;-77
2022/08/25 23:10:10;;;;;;;13.13;11.77;;;21.40;99.90;;;;;;2616818;54;20503;-76
2022/08/25 23:15:58;;;;;;;12.40;11.30;;;21.20;99.90;;;;;;2617133;54;20430;-76
2022/08/25 23:27:52;;;;;;;13.33;12.13;;;21.00;99.90;;;;;;2620772;54;20367;-80
2022/08/25 23:33:40;;;;;;;13.73;12.30;;;21.00;99.90;;;;;;2620160;54;20151;-88
2022/08/25 23:39:28;;;;;;;13.53;12.13;;;21.00;99.90;;;;;;2620403;54;20386;-84
2022/08/25 23:45:16;;;;;;;14.13;12.83;;;20.90;99.90;;;;;;2620457;54;20373;-88
2022/08/25 23:48:13;;;;;;;14.37;13.07;;;20.90;99.90;;;;;;2621200;54;20431;-87
2022/08/25 23:50:44;;;;;;;14.10;12.70;;;20.80;99.90;;;;;;2619997;47;20241;-88
2022/08/25 23:56:33;;;;;;;14.90;12.83;;;20.70;99.90;;;;;;2620884;54;20479;-86
